sensor_id;sensor_type;location;lat;lon;timestamp;pressure;altitude;pressure_sealevel;temperature;humidity
51195;BME280;37259;49.972;19.850;2023-03-31T00:00:04;97960;;;10.4;77.7
51195;BME280;37259;49.972;19.850;2023-03-31T00:01:04;97960;;;10.4;77.7
51195;BME280;37259;49.972;19.850;2023-03-31T00:02:04;97960;;;10.4;77.8
51195;BME280;37259;49.972;19.850;2023-03-31T00:03:04;97960;;;10.4;77.8
51195;BME280;37259;49.972;19.850;2023-03-31T00:04:04;97960;;;10.4;78
51195;BME280;37259;49.972;19.850;2023-03-31T00:05:04;97970;;;10.4;78.1
51195;BME280;37259;49.972;19.850;2023-03-31T00:06:04;97970;;;10.4;78.1
51195;BME280;37259;49.972;19.850;2023-03-31T00:07:04;97970;;;10.4;78.3
51195;BME280;37259;49.972;19.850;2023-03-31T00:08:04;97970;;;10.4;78.3
51195;BME280;37259;49.972;19.850;2023-03-31T00:09:04;97970;;;10.4;78.4
51195;BME280;37259;49.972;19.850;2023-03-31T00:10:04;97970;;;10.4;78.6
51195;BME280;37259;49.972;19.850;2023-03-31T00:11:04;97960;;;10.4;78.6
51195;BME280;37259;49.972;19.850;2023-03-31T00:12:04;97960;;;10.4;78.6
51195;BME280;37259;49.972;19.850;2023-03-31T00:13:04;97960;;;10.4;78.8
51195;BME280;37259;49.972;19.850;2023-03-31T00:14:04;97960;;;10.4;78.8
51195;BME280;37259;49.972;19.850;2023-03-31T00:15:04;97970;;;10.4;78.8
51195;BME280;37259;49.972;19.850;2023-03-31T00:16:04;97970;;;10.4;78.8
51195;BME280;37259;49.972;19.850;2023-03-31T00:17:04;97970;;;10.4;78.9
51195;BME280;37259;49.972;19.850;2023-03-31T00:18:04;97970;;;10.4;78.9
51195;BME280;37259;49.972;19.850;2023-03-31T00:19:04;97970;;;10.4;79
51195;BME280;37259;49.972;19.850;2023-03-31T00:20:04;97970;;;10.4;79
51195;BME280;37259;49.972;19.850;2023-03-31T00:21:06;97970;;;10.4;79
51195;BME280;37259;49.972;19.850;2023-03-31T00:22:04;97970;;;10.4;79
51195;BME280;37259;49.972;19.850;2023-03-31T00:23:04;97970;;;10.4;79
51195;BME280;37259;49.972;19.850;2023-03-31T00:24:05;97970;;;10.4;79.2
51195;BME280;37259;49.972;19.850;2023-03-31T00:25:04;97970;;;10.4;79.2
51195;BME280;37259;49.972;19.850;2023-03-31T00:26:04;97970;;;10.4;79.2
51195;BME280;37259;49.972;19.850;2023-03-31T00:27:04;97970;;;10.4;79.2
51195;BME280;37259;49.972;19.850;2023-03-31T00:28:04;97970;;;10.4;79.2
51195;BME280;37259;49.972;19.850;2023-03-31T00:29:04;97970;;;10.4;79.2
51195;BME280;37259;49.972;19.850;2023-03-31T00:30:04;97970;;;10.4;79.2
51195;BME280;37259;49.972;19.850;2023-03-31T00:31:04;97970;;;10.4;79.2
51195;BME280;37259;49.972;19.850;2023-03-31T00:32:04;97970;;;10.4;79.3
51195;BME280;37259;49.972;19.850;2023-03-31T00:33:04;97970;;;10.5;79.3
51195;BME280;37259;49.972;19.850;2023-03-31T00:34:04;97970;;;10.5;79.3
51195;BME280;37259;49.972;19.850;2023-03-31T00:35:04;97960;;;10.5;79.2
51195;BME280;37259;49.972;19.850;2023-03-31T00:36:04;97960;;;10.5;79.2
51195;BME280;37259;49.972;19.850;2023-03-31T00:37:04;97960;;;10.5;79.2
51195;BME280;37259;49.972;19.850;2023-03-31T00:38:04;97960;;;10.5;79.2
51195;BME280;37259;49.972;19.850;2023-03-31T00:39:05;97960;;;10.5;79.2
51195;BME280;37259;49.972;19.850;2023-03-31T00:40:04;97960;;;10.5;79.1
51195;BME280;37259;49.972;19.850;2023-03-31T00:41:04;97950;;;10.6;79.1
51195;BME280;37259;49.972;19.850;2023-03-31T00:42:04;97960;;;10.6;79
51195;BME280;37259;49.972;19.850;2023-03-31T00:43:04;97960;;;10.6;79
51195;BME280;37259;49.972;19.850;2023-03-31T00:44:06;97950;;;10.6;79
51195;BME280;37259;49.972;19.850;2023-03-31T00:45:20;97950;;;10.6;79
51195;BME280;37259;49.972;19.850;2023-03-31T00:46:06;97950;;;10.6;78.9
51195;BME280;37259;49.972;19.850;2023-03-31T00:47:05;97950;;;10.6;78.8
51195;BME280;37259;49.972;19.850;2023-03-31T00:48:04;97950;;;10.7;78.7
51195;BME280;37259;49.972;19.850;2023-03-31T00:49:04;97950;;;10.7;78.7
51195;BME280;37259;49.972;19.850;2023-03-31T00:50:12;97950;;;10.7;78.5
51195;BME280;37259;49.972;19.850;2023-03-31T00:51:04;97950;;;10.7;78.5
51195;BME280;37259;49.972;19.850;2023-03-31T00:52:05;97950;;;10.7;78.5
51195;BME280;37259;49.972;19.850;2023-03-31T00:53:04;97950;;;10.7;78.3
51195;BME280;37259;49.972;19.850;2023-03-31T00:54:04;97960;;;10.8;78
51195;BME280;37259;49.972;19.850;2023-03-31T00:55:05;97950;;;10.8;78
51195;BME280;37259;49.972;19.850;2023-03-31T00:56:05;97950;;;10.8;78
51195;BME280;37259;49.972;19.850;2023-03-31T00:57:04;97960;;;10.8;78
51195;BME280;37259;49.972;19.850;2023-03-31T00:58:04;97950;;;10.8;77.8
51195;BME280;37259;49.972;19.850;2023-03-31T00:59:05;97950;;;10.8;77.8
51195;BME280;37259;49.972;19.850;2023-03-31T01:00:05;97950;;;10.8;77.8
51195;BME280;37259;49.972;19.850;2023-03-31T01:01:04;97960;;;10.8;77.6
51195;BME280;37259;49.972;19.850;2023-03-31T01:02:04;97960;;;10.8;77.6
51195;BME280;37259;49.972;19.850;2023-03-31T01:03:04;97960;;;10.8;77.5
51195;BME280;37259;49.972;19.850;2023-03-31T01:04:04;97960;;;10.8;77.1
51195;BME280;37259;49.972;19.850;2023-03-31T01:05:04;97960;;;10.8;77.1
51195;BME280;37259;49.972;19.850;2023-03-31T01:06:04;97960;;;10.8;76.9
51195;BME280;37259;49.972;19.850;2023-03-31T01:07:06;97960;;;10.8;77
51195;BME280;37259;49.972;19.850;2023-03-31T01:08:04;97960;;;10.8;76.8
51195;BME280;37259;49.972;19.850;2023-03-31T01:09:04;97960;;;10.8;76.8
51195;BME280;37259;49.972;19.850;2023-03-31T01:10:04;97950;;;10.8;76.6
51195;BME280;37259;49.972;19.850;2023-03-31T01:11:04;97960;;;10.9;76.5
51195;BME280;37259;49.972;19.850;2023-03-31T01:12:05;97960;;;10.9;76.5
51195;BME280;37259;49.972;19.850;2023-03-31T01:13:05;97950;;;10.9;76.5
51195;BME280;37259;49.972;19.850;2023-03-31T01:14:04;97950;;;10.9;76.5
51195;BME280;37259;49.972;19.850;2023-03-31T01:15:04;97950;;;10.9;76.4
51195;BME280;37259;49.972;19.850;2023-03-31T01:16:04;97960;;;10.9;76.3
51195;BME280;37259;49.972;19.850;2023-03-31T01:17:04;97960;;;10.9;76.3
51195;BME280;37259;49.972;19.850;2023-03-31T01:18:04;97960;;;10.9;76.3
51195;BME280;37259;49.972;19.850;2023-03-31T01:19:04;97950;;;10.9;76.4
51195;BME280;37259;49.972;19.850;2023-03-31T01:20:05;97950;;;10.9;76.4
51195;BME280;37259;49.972;19.850;2023-03-31T01:21:42;97960;;;10.9;76.1
51195;BME280;37259;49.972;19.850;2023-03-31T01:22:10;97960;;;10.9;76.1
51195;BME280;37259;49.972;19.850;2023-03-31T01:23:07;97950;;;10.9;76.2
51195;BME280;37259;49.972;19.850;2023-03-31T01:25:09;97950;;;10.9;76.2
51195;BME280;37259;49.972;19.850;2023-03-31T01:26:13;97950;;;10.9;76.2
51195;BME280;37259;49.972;19.850;2023-03-31T01:27:07;97950;;;10.9;76.1
51195;BME280;37259;49.972;19.850;2023-03-31T01:28:06;97950;;;10.9;76.1
51195;BME280;37259;49.972;19.850;2023-03-31T01:29:06;97950;;;10.9;76.1
51195;BME280;37259;49.972;19.850;2023-03-31T01:30:10;97950;;;10.9;76.1
51195;BME280;37259;49.972;19.850;2023-03-31T01:31:10;97950;;;10.9;76
51195;BME280;37259;49.972;19.850;2023-03-31T01:32:09;97950;;;10.9;76
51195;BME280;37259;49.972;19.850;2023-03-31T01:33:08;97950;;;10.9;76
51195;BME280;37259;49.972;19.850;2023-03-31T01:34:10;97950;;;10.9;76
51195;BME280;37259;49.972;19.850;2023-03-31T01:35:40;97950;;;10.9;75.8
51195;BME280;37259;49.972;19.850;2023-03-31T01:36:09;97950;;;10.9;75.8
51195;BME280;37259;49.972;19.850;2023-03-31T01:38:12;97950;;;10.9;75.8
51195;BME280;37259;49.972;19.850;2023-03-31T01:39:15;97950;;;10.9;75.7
51195;BME280;37259;49.972;19.850;2023-03-31T01:40:07;97950;;;10.8;75.7
51195;BME280;37259;49.972;19.850;2023-03-31T01:41:07;97950;;;10.8;75.6
51195;BME280;37259;49.972;19.850;2023-03-31T01:42:04;97950;;;10.8;75.6
51195;BME280;37259;49.972;19.850;2023-03-31T01:43:05;97950;;;10.8;75.7
51195;BME280;37259;49.972;19.850;2023-03-31T01:44:05;97940;;;10.8;75.7
51195;BME280;37259;49.972;19.850;2023-03-31T01:45:06;97950;;;10.8;75.7
51195;BME280;37259;49.972;19.850;2023-03-31T01:46:06;97950;;;10.8;75.6
51195;BME280;37259;49.972;19.850;2023-03-31T01:47:05;97950;;;10.8;75.6
51195;BME280;37259;49.972;19.850;2023-03-31T01:48:06;97950;;;10.8;75.6
51195;BME280;37259;49.972;19.850;2023-03-31T01:49:07;97950;;;10.8;75.6
51195;BME280;37259;49.972;19.850;2023-03-31T01:50:05;97950;;;10.8;75.4
51195;BME280;37259;49.972;19.850;2023-03-31T01:51:05;97950;;;10.8;75.5
51195;BME280;37259;49.972;19.850;2023-03-31T01:52:05;97950;;;10.8;75.5
51195;BME280;37259;49.972;19.850;2023-03-31T01:53:04;97950;;;10.8;75.5
51195;BME280;37259;49.972;19.850;2023-03-31T01:54:06;97950;;;10.8;75.5
51195;BME280;37259;49.972;19.850;2023-03-31T01:55:05;97950;;;10.8;75.5
51195;BME280;37259;49.972;19.850;2023-03-31T01:56:05;97950;;;10.7;75.5
51195;BME280;37259;49.972;19.850;2023-03-31T01:57:05;97950;;;10.7;75.5
51195;BME280;37259;49.972;19.850;2023-03-31T01:58:05;97950;;;10.7;75.5
51195;BME280;37259;49.972;19.850;2023-03-31T01:59:06;97960;;;10.7;75.4
51195;BME280;37259;49.972;19.850;2023-03-31T02:00:05;97960;;;10.7;75.4
51195;BME280;37259;49.972;19.850;2023-03-31T02:01:05;97960;;;10.7;75.3
51195;BME280;37259;49.972;19.850;2023-03-31T02:02:05;97960;;;10.7;75.4
51195;BME280;37259;49.972;19.850;2023-03-31T02:03:05;97960;;;10.7;75.4
51195;BME280;37259;49.972;19.850;2023-03-31T02:04:05;97960;;;10.7;75.5
51195;BME280;37259;49.972;19.850;2023-03-31T02:05:05;97960;;;10.7;75.5
51195;BME280;37259;49.972;19.850;2023-03-31T02:06:05;97960;;;10.6;75.5
51195;BME280;37259;49.972;19.850;2023-03-31T02:07:06;97960;;;10.6;75.5
51195;BME280;37259;49.972;19.850;2023-03-31T02:08:05;97960;;;10.6;75.5
51195;BME280;37259;49.972;19.850;2023-03-31T02:09:05;97960;;;10.6;75.5
51195;BME280;37259;49.972;19.850;2023-03-31T02:10:05;97960;;;10.6;75.3
51195;BME280;37259;49.972;19.850;2023-03-31T02:11:04;97960;;;10.6;75.4
51195;BME280;37259;49.972;19.850;2023-03-31T02:12:05;97960;;;10.6;75.4
51195;BME280;37259;49.972;19.850;2023-03-31T02:13:04;97950;;;10.6;75.3
51195;BME280;37259;49.972;19.850;2023-03-31T02:14:04;97950;;;10.6;75.3
51195;BME280;37259;49.972;19.850;2023-03-31T02:15:06;97950;;;10.6;75.3
51195;BME280;37259;49.972;19.850;2023-03-31T02:16:05;97950;;;10.6;75.3
51195;BME280;37259;49.972;19.850;2023-03-31T02:17:04;97950;;;10.6;75.4
51195;BME280;37259;49.972;19.850;2023-03-31T02:18:04;97940;;;10.6;75.4
51195;BME280;37259;49.972;19.850;2023-03-31T02:19:04;97940;;;10.6;75.4
51195;BME280;37259;49.972;19.850;2023-03-31T02:20:05;97940;;;10.5;75.4
51195;BME280;37259;49.972;19.850;2023-03-31T02:21:04;97940;;;10.5;75.5
51195;BME280;37259;49.972;19.850;2023-03-31T02:22:04;97940;;;10.5;75.5
51195;BME280;37259;49.972;19.850;2023-03-31T02:23:04;97940;;;10.5;75.3
51195;BME280;37259;49.972;19.850;2023-03-31T02:24:04;97940;;;10.5;75.4
51195;BME280;37259;49.972;19.850;2023-03-31T02:25:05;97940;;;10.5;75.4
51195;BME280;37259;49.972;19.850;2023-03-31T02:26:06;97940;;;10.5;75.3
51195;BME280;37259;49.972;19.850;2023-03-31T02:27:05;97940;;;10.5;75.3
51195;BME280;37259;49.972;19.850;2023-03-31T02:28:06;97940;;;10.5;75.3
51195;BME280;37259;49.972;19.850;2023-03-31T02:29:04;97940;;;10.5;75.3
51195;BME280;37259;49.972;19.850;2023-03-31T02:30:04;97950;;;10.5;75.4
51195;BME280;37259;49.972;19.850;2023-03-31T02:31:07;97940;;;10.5;75.4
51195;BME280;37259;49.972;19.850;2023-03-31T02:32:07;97940;;;10.5;75.4
51195;BME280;37259;49.972;19.850;2023-03-31T02:33:04;97950;;;10.5;75.5
51195;BME280;37259;49.972;19.850;2023-03-31T02:34:04;97960;;;10.4;75.4
51195;BME280;37259;49.972;19.850;2023-03-31T02:35:05;97960;;;10.4;75.4
51195;BME280;37259;49.972;19.850;2023-03-31T02:36:04;97960;;;10.4;75.5
51195;BME280;37259;49.972;19.850;2023-03-31T02:37:04;97960;;;10.4;75.5
51195;BME280;37259;49.972;19.850;2023-03-31T02:38:04;97960;;;10.4;75.5
51195;BME280;37259;49.972;19.850;2023-03-31T02:39:05;97960;;;10.4;75.5
51195;BME280;37259;49.972;19.850;2023-03-31T02:40:05;97960;;;10.4;75.8
51195;BME280;37259;49.972;19.850;2023-03-31T02:41:04;97950;;;10.4;75.8
51195;BME280;37259;49.972;19.850;2023-03-31T02:42:04;97950;;;10.4;75.8
51195;BME280;37259;49.972;19.850;2023-03-31T02:43:04;97950;;;10.4;75.8
51195;BME280;37259;49.972;19.850;2023-03-31T02:44:04;97950;;;10.4;75.8
51195;BME280;37259;49.972;19.850;2023-03-31T02:45:05;97950;;;10.4;75.8
51195;BME280;37259;49.972;19.850;2023-03-31T02:46:04;97950;;;10.4;75.9
51195;BME280;37259;49.972;19.850;2023-03-31T02:47:05;97950;;;10.4;75.9
51195;BME280;37259;49.972;19.850;2023-03-31T02:48:04;97950;;;10.4;75.9
51195;BME280;37259;49.972;19.850;2023-03-31T02:49:05;97950;;;10.4;75.9
51195;BME280;37259;49.972;19.850;2023-03-31T02:50:04;97950;;;10.4;75.9
51195;BME280;37259;49.972;19.850;2023-03-31T02:51:12;97950;;;10.4;76
51195;BME280;37259;49.972;19.850;2023-03-31T02:52:10;97950;;;10.4;76
51195;BME280;37259;49.972;19.850;2023-03-31T02:53:05;97950;;;10.4;75.9
51195;BME280;37259;49.972;19.850;2023-03-31T02:54:10;97950;;;10.4;75.9
51195;BME280;37259;49.972;19.850;2023-03-31T02:55:10;97950;;;10.4;75.9
51195;BME280;37259;49.972;19.850;2023-03-31T02:56:09;97950;;;10.3;75.8
51195;BME280;37259;49.972;19.850;2023-03-31T02:57:25;97950;;;10.3;76
51195;BME280;37259;49.972;19.850;2023-03-31T02:58:08;97950;;;10.3;76
51195;BME280;37259;49.972;19.850;2023-03-31T02:59:08;97950;;;10.3;75.9
51195;BME280;37259;49.972;19.850;2023-03-31T03:00:06;97950;;;10.3;75.9
51195;BME280;37259;49.972;19.850;2023-03-31T03:01:06;97950;;;10.3;75.8
51195;BME280;37259;49.972;19.850;2023-03-31T03:02:07;97950;;;10.3;75.8
51195;BME280;37259;49.972;19.850;2023-03-31T03:03:08;97950;;;10.3;75.8
51195;BME280;37259;49.972;19.850;2023-03-31T03:04:07;97950;;;10.3;75.8
51195;BME280;37259;49.972;19.850;2023-03-31T03:05:11;97950;;;10.3;75.7
51195;BME280;37259;49.972;19.850;2023-03-31T03:06:05;97950;;;10.3;75.7
51195;BME280;37259;49.972;19.850;2023-03-31T03:07:06;97950;;;10.2;75.7
51195;BME280;37259;49.972;19.850;2023-03-31T03:08:06;97950;;;10.2;75.7
51195;BME280;37259;49.972;19.850;2023-03-31T03:09:07;97950;;;10.2;75.8
51195;BME280;37259;49.972;19.850;2023-03-31T03:10:05;97950;;;10.2;75.8
51195;BME280;37259;49.972;19.850;2023-03-31T03:11:06;97950;;;10.2;75.8
51195;BME280;37259;49.972;19.850;2023-03-31T03:12:06;97950;;;10.1;75.8
51195;BME280;37259;49.972;19.850;2023-03-31T03:13:05;97950;;;10.1;75.9
51195;BME280;37259;49.972;19.850;2023-03-31T03:14:05;97950;;;10.1;75.9
51195;BME280;37259;49.972;19.850;2023-03-31T03:15:05;97950;;;10;75.9
51195;BME280;37259;49.972;19.850;2023-03-31T03:16:04;97950;;;10;76
51195;BME280;37259;49.972;19.850;2023-03-31T03:17:05;97950;;;10;76.1
51195;BME280;37259;49.972;19.850;2023-03-31T03:18:04;97950;;;10;76.1
51195;BME280;37259;49.972;19.850;2023-03-31T03:19:05;97950;;;10;76.2
51195;BME280;37259;49.972;19.850;2023-03-31T03:20:05;97950;;;10;76.3
51195;BME280;37259;49.972;19.850;2023-03-31T03:21:04;97950;;;10;76.3
51195;BME280;37259;49.972;19.850;2023-03-31T03:22:04;97950;;;9.9;76.4
51195;BME280;37259;49.972;19.850;2023-03-31T03:23:04;97950;;;10;76.4
51195;BME280;37259;49.972;19.850;2023-03-31T03:24:05;97950;;;10;76.4
51195;BME280;37259;49.972;19.850;2023-03-31T03:25:04;97950;;;9.9;76.4
51195;BME280;37259;49.972;19.850;2023-03-31T03:26:04;97950;;;9.9;76.4
51195;BME280;37259;49.972;19.850;2023-03-31T03:27:04;97950;;;9.9;76.4
51195;BME280;37259;49.972;19.850;2023-03-31T03:28:04;97950;;;9.9;76.5
51195;BME280;37259;49.972;19.850;2023-03-31T03:29:04;97950;;;9.9;76.5
51195;BME280;37259;49.972;19.850;2023-03-31T03:30:05;97950;;;9.9;76.6
51195;BME280;37259;49.972;19.850;2023-03-31T03:31:04;97950;;;9.9;76.6
51195;BME280;37259;49.972;19.850;2023-03-31T03:32:04;97950;;;9.9;76.6
51195;BME280;37259;49.972;19.850;2023-03-31T03:33:04;97950;;;9.9;76.7
51195;BME280;37259;49.972;19.850;2023-03-31T03:34:05;97950;;;9.9;76.6
51195;BME280;37259;49.972;19.850;2023-03-31T03:35:04;97950;;;9.9;76.6
51195;BME280;37259;49.972;19.850;2023-03-31T03:36:05;97950;;;9.9;76.7
51195;BME280;37259;49.972;19.850;2023-03-31T03:37:04;97950;;;9.9;76.7
51195;BME280;37259;49.972;19.850;2023-03-31T03:38:04;97950;;;9.9;76.7
51195;BME280;37259;49.972;19.850;2023-03-31T03:39:04;97950;;;9.9;76.7
51195;BME280;37259;49.972;19.850;2023-03-31T03:40:05;97950;;;9.9;76.7
51195;BME280;37259;49.972;19.850;2023-03-31T03:41:04;97950;;;9.9;76.7
51195;BME280;37259;49.972;19.850;2023-03-31T03:42:04;97950;;;9.9;76.7
51195;BME280;37259;49.972;19.850;2023-03-31T03:43:04;97950;;;9.9;76.7
51195;BME280;37259;49.972;19.850;2023-03-31T03:44:04;97950;;;9.9;76.7
51195;BME280;37259;49.972;19.850;2023-03-31T03:45:05;97940;;;9.9;76.8
51195;BME280;37259;49.972;19.850;2023-03-31T03:46:04;97940;;;9.9;76.8
51195;BME280;37259;49.972;19.850;2023-03-31T03:47:04;97940;;;9.9;76.8
51195;BME280;37259;49.972;19.850;2023-03-31T03:48:04;97940;;;9.9;76.8
51195;BME280;37259;49.972;19.850;2023-03-31T03:49:04;97930;;;9.9;76.8
51195;BME280;37259;49.972;19.850;2023-03-31T03:50:04;97930;;;9.9;76.8
51195;BME280;37259;49.972;19.850;2023-03-31T03:51:04;97930;;;9.9;76.8
51195;BME280;37259;49.972;19.850;2023-03-31T03:52:04;97930;;;9.9;76.8
51195;BME280;37259;49.972;19.850;2023-03-31T03:53:04;97930;;;9.9;76.8
51195;BME280;37259;49.972;19.850;2023-03-31T03:54:04;97930;;;9.9;76.8
51195;BME280;37259;49.972;19.850;2023-03-31T03:55:04;97930;;;9.9;76.8
51195;BME280;37259;49.972;19.850;2023-03-31T03:56:04;97930;;;9.9;76.8
51195;BME280;37259;49.972;19.850;2023-03-31T03:57:04;97940;;;9.9;76.8
51195;BME280;37259;49.972;19.850;2023-03-31T03:58:04;97940;;;9.9;76.8
51195;BME280;37259;49.972;19.850;2023-03-31T03:59:04;97930;;;9.9;76.8
51195;BME280;37259;49.972;19.850;2023-03-31T04:00:05;97930;;;9.9;76.8
51195;BME280;37259;49.972;19.850;2023-03-31T04:01:04;97930;;;9.9;76.8
51195;BME280;37259;49.972;19.850;2023-03-31T04:02:04;97920;;;9.9;76.7
51195;BME280;37259;49.972;19.850;2023-03-31T04:03:04;97920;;;9.9;76.7
51195;BME280;37259;49.972;19.850;2023-03-31T04:04:04;97910;;;9.9;76.7
51195;BME280;37259;49.972;19.850;2023-03-31T04:05:04;97910;;;9.9;76.7
51195;BME280;37259;49.972;19.850;2023-03-31T04:06:04;97910;;;9.9;76.7
51195;BME280;37259;49.972;19.850;2023-03-31T04:07:04;97910;;;9.9;76.7
51195;BME280;37259;49.972;19.850;2023-03-31T04:08:04;97910;;;9.9;76.7
51195;BME280;37259;49.972;19.850;2023-03-31T04:09:04;97910;;;9.9;76.6
51195;BME280;37259;49.972;19.850;2023-03-31T04:10:04;97910;;;9.9;76.6
51195;BME280;37259;49.972;19.850;2023-03-31T04:11:08;97910;;;9.9;76.6
51195;BME280;37259;49.972;19.850;2023-03-31T04:12:04;97910;;;9.9;76.6
51195;BME280;37259;49.972;19.850;2023-03-31T04:13:04;97910;;;9.9;76.6
51195;BME280;37259;49.972;19.850;2023-03-31T04:14:04;97910;;;9.9;76.5
51195;BME280;37259;49.972;19.850;2023-03-31T04:15:04;97910;;;9.9;76.5
51195;BME280;37259;49.972;19.850;2023-03-31T04:16:04;97910;;;9.9;76.4
51195;BME280;37259;49.972;19.850;2023-03-31T04:17:04;97910;;;9.9;76.4
51195;BME280;37259;49.972;19.850;2023-03-31T04:18:04;97910;;;9.9;76.4
51195;BME280;37259;49.972;19.850;2023-03-31T04:19:04;97910;;;9.9;76.4
51195;BME280;37259;49.972;19.850;2023-03-31T04:20:05;97900;;;9.9;76.4
51195;BME280;37259;49.972;19.850;2023-03-31T04:21:04;97900;;;9.8;76.4
51195;BME280;37259;49.972;19.850;2023-03-31T04:22:04;97900;;;9.8;76.4
51195;BME280;37259;49.972;19.850;2023-03-31T04:23:04;97900;;;9.8;76.4
51195;BME280;37259;49.972;19.850;2023-03-31T04:24:04;97900;;;9.8;76.3
51195;BME280;37259;49.972;19.850;2023-03-31T04:25:04;97900;;;9.8;76.3
51195;BME280;37259;49.972;19.850;2023-03-31T04:26:04;97900;;;9.8;76.3
51195;BME280;37259;49.972;19.850;2023-03-31T04:27:04;97900;;;9.8;76.2
51195;BME280;37259;49.972;19.850;2023-03-31T04:28:04;97900;;;9.8;76.2
51195;BME280;37259;49.972;19.850;2023-03-31T04:29:04;97890;;;9.8;76.2
51195;BME280;37259;49.972;19.850;2023-03-31T04:30:04;97890;;;9.8;76.2
51195;BME280;37259;49.972;19.850;2023-03-31T04:31:04;97890;;;9.7;76.2
51195;BME280;37259;49.972;19.850;2023-03-31T04:32:04;97890;;;9.7;76.2
51195;BME280;37259;49.972;19.850;2023-03-31T04:33:04;97890;;;9.7;76.2
51195;BME280;37259;49.972;19.850;2023-03-31T04:34:04;97890;;;9.7;76.2
51195;BME280;37259;49.972;19.850;2023-03-31T04:35:04;97880;;;9.7;76.2
51195;BME280;37259;49.972;19.850;2023-03-31T04:36:04;97890;;;9.7;76.2
51195;BME280;37259;49.972;19.850;2023-03-31T04:37:04;97890;;;9.7;76.2
51195;BME280;37259;49.972;19.850;2023-03-31T04:38:04;97890;;;9.6;76.4
51195;BME280;37259;49.972;19.850;2023-03-31T04:39:04;97880;;;9.6;76.5
51195;BME280;37259;49.972;19.850;2023-03-31T04:40:05;97880;;;9.6;76.5
51195;BME280;37259;49.972;19.850;2023-03-31T04:41:04;97880;;;9.6;76.6
51195;BME280;37259;49.972;19.850;2023-03-31T04:42:04;97880;;;9.6;76.6
51195;BME280;37259;49.972;19.850;2023-03-31T04:43:04;97880;;;9.6;77.1
51195;BME280;37259;49.972;19.850;2023-03-31T04:44:04;97880;;;9.6;77.1
51195;BME280;37259;49.972;19.850;2023-03-31T04:45:05;97880;;;9.6;77.1
51195;BME280;37259;49.972;19.850;2023-03-31T04:46:04;97890;;;9.6;77.3
51195;BME280;37259;49.972;19.850;2023-03-31T04:47:04;97890;;;9.6;77.4
51195;BME280;37259;49.972;19.850;2023-03-31T04:48:04;97890;;;9.6;77.4
51195;BME280;37259;49.972;19.850;2023-03-31T04:49:04;97890;;;9.6;77.4
51195;BME280;37259;49.972;19.850;2023-03-31T04:50:05;97890;;;9.6;77.4
51195;BME280;37259;49.972;19.850;2023-03-31T04:51:04;97890;;;9.5;77.6
51195;BME280;37259;49.972;19.850;2023-03-31T04:52:04;97890;;;9.5;77.6
51195;BME280;37259;49.972;19.850;2023-03-31T04:53:04;97890;;;9.6;77.6
51195;BME280;37259;49.972;19.850;2023-03-31T04:54:04;97890;;;9.6;77.6
51195;BME280;37259;49.972;19.850;2023-03-31T04:55:04;97890;;;9.6;77.6
51195;BME280;37259;49.972;19.850;2023-03-31T04:56:04;97890;;;9.6;77.6
51195;BME280;37259;49.972;19.850;2023-03-31T04:57:04;97890;;;9.6;77.5
51195;BME280;37259;49.972;19.850;2023-03-31T04:58:04;97890;;;9.6;77.5
51195;BME280;37259;49.972;19.850;2023-03-31T04:59:04;97890;;;9.6;77.5
51195;BME280;37259;49.972;19.850;2023-03-31T05:00:06;97890;;;9.6;77.5
51195;BME280;37259;49.972;19.850;2023-03-31T05:01:04;97880;;;9.6;77.5
51195;BME280;37259;49.972;19.850;2023-03-31T05:02:04;97880;;;9.6;77.5
51195;BME280;37259;49.972;19.850;2023-03-31T05:03:04;97880;;;9.6;77.5
51195;BME280;37259;49.972;19.850;2023-03-31T05:04:04;97880;;;9.6;77.5
51195;BME280;37259;49.972;19.850;2023-03-31T05:05:04;97880;;;9.7;77.6
51195;BME280;37259;49.972;19.850;2023-03-31T05:06:04;97880;;;9.7;77.6
51195;BME280;37259;49.972;19.850;2023-03-31T05:07:04;97880;;;9.7;77.6
51195;BME280;37259;49.972;19.850;2023-03-31T05:08:04;97880;;;9.7;77.6
51195;BME280;37259;49.972;19.850;2023-03-31T05:09:04;97880;;;9.7;77.6
51195;BME280;37259;49.972;19.850;2023-03-31T05:10:05;97880;;;9.7;77.6
51195;BME280;37259;49.972;19.850;2023-03-31T05:11:04;97880;;;9.7;77.6
51195;BME280;37259;49.972;19.850;2023-03-31T05:12:05;97880;;;9.7;77.6
51195;BME280;37259;49.972;19.850;2023-03-31T05:13:04;97880;;;9.7;77.6
51195;BME280;37259;49.972;19.850;2023-03-31T05:14:04;97880;;;9.7;77.6
51195;BME280;37259;49.972;19.850;2023-03-31T05:15:05;97880;;;9.8;77.7
51195;BME280;37259;49.972;19.850;2023-03-31T05:16:05;97880;;;9.8;77.7
51195;BME280;37259;49.972;19.850;2023-03-31T05:17:04;97880;;;9.8;77.6
51195;BME280;37259;49.972;19.850;2023-03-31T05:18:04;97880;;;9.8;77.6
51195;BME280;37259;49.972;19.850;2023-03-31T05:19:04;97880;;;9.8;77.6
51195;BME280;37259;49.972;19.850;2023-03-31T05:20:05;97870;;;9.9;77.4
51195;BME280;37259;49.972;19.850;2023-03-31T05:21:09;97870;;;9.9;77.4
51195;BME280;37259;49.972;19.850;2023-03-31T05:22:04;97880;;;9.9;77.4
51195;BME280;37259;49.972;19.850;2023-03-31T05:23:04;97880;;;9.9;77.5
51195;BME280;37259;49.972;19.850;2023-03-31T05:24:04;97870;;;9.9;77.5
51195;BME280;37259;49.972;19.850;2023-03-31T05:25:05;97870;;;9.9;77.5
51195;BME280;37259;49.972;19.850;2023-03-31T05:26:04;97870;;;9.9;77.5
51195;BME280;37259;49.972;19.850;2023-03-31T05:27:04;97870;;;10;77.5
51195;BME280;37259;49.972;19.850;2023-03-31T05:28:04;97870;;;10;77.5
51195;BME280;37259;49.972;19.850;2023-03-31T05:29:04;97870;;;10;77.5
51195;BME280;37259;49.972;19.850;2023-03-31T05:30:05;97870;;;10;77.5
51195;BME280;37259;49.972;19.850;2023-03-31T05:31:05;97870;;;10.1;77.6
51195;BME280;37259;49.972;19.850;2023-03-31T05:32:04;97870;;;10.1;77.6
51195;BME280;37259;49.972;19.850;2023-03-31T05:33:04;97870;;;10.1;77.6
51195;BME280;37259;49.972;19.850;2023-03-31T05:34:04;97870;;;10.2;77.6
51195;BME280;37259;49.972;19.850;2023-03-31T05:35:05;97870;;;10.2;77.4
51195;BME280;37259;49.972;19.850;2023-03-31T05:36:05;97870;;;10.2;77.4
51195;BME280;37259;49.972;19.850;2023-03-31T05:37:04;97870;;;10.3;77.3
51195;BME280;37259;49.972;19.850;2023-03-31T05:38:04;97870;;;10.3;77.3
51195;BME280;37259;49.972;19.850;2023-03-31T05:39:05;97870;;;10.3;77.3
51195;BME280;37259;49.972;19.850;2023-03-31T05:40:05;97870;;;10.4;77